sim
Sign-in with your pilot id or email,
or register
Callsign
Passwort

Schedule Details

Flight Number: DLH110
Departure: Frankfurt Airport (EDDF) at 14:15
Arrival: Munich Airport (EDDM) at 15:10
Route: Lufthansa Passenger Schedule. Enter filed route here before submitting Pirep.

Weather Information
Getting current METAR information for EDDF 250720Z 22007KT 9999 FEW011 11/08 Q1000 NOSIG
Getting current METAR information for EDDM 250720Z 28017G27KT 4500 SHRA FEW008 SCT020CB BKN040 11/09 Q1001 BECMG 25010KT 7000 NSW

Schedule Frequency

Route Map